Time;durP1;ratioP1;P1;durP2;ratioP2;P2;SDS_P1;SDS_P2;PMS_P1;PMS_P2;Temp;Humidity;BMP_temperature;BMP_pressure;BME280_temperature;BME280_humidity;BME280_pressure;Samples;Min_cycle;Max_cycle;Signal;HPM_P1;HPM_P2
2023/08/06 00:00:51;;;;;;;7.93;5.70;;;;;;;27.25;66.30;98273.66;5091906;28;20024;-44
2023/08/06 00:03:17;;;;;;;5.93;4.85;;;;;;;27.25;66.17;98279.09;5091781;28;20093;-46
2023/08/06 00:05:43;;;;;;;5.57;4.55;;;;;;;26.91;67.38;98281.28;5091745;28;20068;-47
2023/08/06 00:08:08;;;;;;;6.47;5.10;;;;;;;26.95;67.19;98265.00;5091576;28;20375;-48
2023/08/06 00:10:34;;;;;;;6.68;4.93;;;;;;;26.96;67.21;98276.72;5091309;28;20044;-46
2023/08/06 00:12:59;;;;;;;7.03;4.78;;;;;;;26.68;68.51;98269.31;5091816;28;20027;-44
2023/08/06 00:15:24;;;;;;;8.68;4.97;;;;;;;26.57;68.93;98262.72;5089506;28;20073;-47
2023/08/06 00:17:50;;;;;;;7.43;5.20;;;;;;;26.53;69.21;98251.72;5091517;28;20040;-46
2023/08/06 00:20:16;;;;;;;7.35;5.30;;;;;;;26.55;69.31;98259.56;5091485;28;20115;-46
2023/08/06 00:22:41;;;;;;;6.65;5.45;;;;;;;26.57;69.27;98255.34;5073215;28;20345;-48
2023/08/06 00:25:07;;;;;;;9.23;5.53;;;;;;;26.07;71.48;98260.09;5091664;28;20027;-47
2023/08/06 00:27:32;;;;;;;11.15;5.70;;;;;;;25.94;72.42;98258.53;5091557;28;20016;-46
2023/08/06 00:29:58;;;;;;;8.60;5.63;;;;;;;25.97;72.33;98255.13;5091404;28;20140;-45
2023/08/06 00:32:23;;;;;;;7.57;5.18;;;;;;;26.11;72.10;98258.28;5091557;28;20106;-44
2023/08/06 00:34:49;;;;;;;8.20;5.72;;;;;;;26.20;71.71;98269.06;5090347;28;20411;-44
2023/08/06 00:37:16;;;;;;;9.20;5.70;;;;;;;26.05;72.58;98273.28;5091112;28;20056;-46
2023/08/06 00:39:42;;;;;;;8.40;5.40;;;;;;;26.06;72.77;98263.94;5091178;28;20111;-46
2023/08/06 00:42:07;;;;;;;8.15;5.75;;;;;;;26.07;72.74;98262.03;5091191;28;20115;-46
2023/08/06 00:44:33;;;;;;;10.32;5.55;;;;;;;26.10;72.71;98259.44;5090871;28;20024;-45
2023/08/06 00:46:58;;;;;;;8.63;5.90;;;;;;;26.04;72.67;98255.31;5090936;28;20463;-45
2023/08/06 00:49:24;;;;;;;7.15;5.00;;;;;;;26.03;73.17;98245.56;5090879;28;20414;-44
2023/08/06 00:51:50;;;;;;;7.72;5.68;;;;;;;25.99;73.16;98244.66;5091032;28;20028;-47
2023/08/06 00:54:16;;;;;;;7.70;5.70;;;;;;;25.99;73.53;98241.94;5090919;28;20158;-46
2023/08/06 00:56:42;;;;;;;11.15;6.13;;;;;;;25.93;73.66;98241.38;5090903;28;20479;-49
2023/08/06 00:59:09;;;;;;;10.02;5.85;;;;;;;25.79;74.30;98235.44;5090609;28;20031;-48
2023/08/06 01:01:35;;;;;;;8.02;6.25;;;;;;;25.82;74.24;98231.25;5090715;28;20020;-46
2023/08/06 01:04:01;;;;;;;9.27;5.85;;;;;;;25.81;74.63;98216.81;5090871;28;20030;-48
2023/08/06 01:06:49;;;;;;;8.93;6.00;;;;;;;25.53;75.76;98214.81;5090626;28;20020;-48
2023/08/06 01:09:23;;;;;;;7.55;6.13;;;;;;;25.52;76.26;98218.63;5090685;28;20039;-45
2023/08/06 01:12:06;;;;;;;8.75;6.15;;;;;;;25.52;75.96;98220.59;5090805;28;20109;-47
2023/08/06 01:14:47;;;;;;;10.32;6.10;;;;;;;25.47;76.53;98218.84;5090394;28;20050;-45
2023/08/06 01:17:12;;;;;;;8.95;6.20;;;;;;;25.35;77.27;98224.31;5090483;28;20027;-45
2023/08/06 01:19:38;;;;;;;11.32;6.32;;;;;;;25.39;77.10;98222.50;5088668;28;20051;-47
2023/08/06 01:22:04;;;;;;;12.00;6.97;;;;;;;25.45;77.08;98228.50;5090988;28;20027;-48
2023/08/06 01:24:30;;;;;;;10.65;6.68;;;;;;;25.53;76.61;98235.75;5090817;28;20039;-48
2023/08/06 01:27:04;;;;;;;8.95;6.18;;;;;;;25.29;77.74;98226.44;5090765;28;20016;-48
2023/08/06 01:29:48;;;;;;;10.68;6.32;;;;;;;25.33;78.19;98240.97;5091089;28;20020;-47
2023/08/06 01:32:16;;;;;;;9.82;6.20;;;;;;;25.46;77.10;98241.78;5090772;28;20043;-48
2023/08/06 01:34:44;;;;;;;8.40;6.53;;;;;;;25.42;77.42;98235.44;5090746;28;20031;-45
2023/08/06 01:37:11;;;;;;;7.00;6.10;;;;;;;25.32;77.97;98223.06;5090586;28;20052;-45
2023/08/06 01:39:36;;;;;;;7.65;6.25;;;;;;;25.44;77.64;98219.56;5090946;28;20063;-48
2023/08/06 01:42:02;;;;;;;9.05;6.30;;;;;;;25.55;77.13;98211.72;5091056;28;20052;-43
2023/08/06 01:44:28;;;;;;;11.63;6.50;;;;;;;25.47;77.58;98207.97;5090724;28;20031;-46
2023/08/06 01:46:53;;;;;;;7.93;5.82;;;;;;;25.54;77.14;98196.53;5090691;28;20103;-45
2023/08/06 01:49:18;;;;;;;10.50;6.30;;;;;;;25.79;75.97;98199.25;5090880;28;20020;-45
2023/08/06 01:51:44;;;;;;;9.70;6.57;;;;;;;25.71;75.94;98195.50;5090481;28;20020;-47
2023/08/06 01:54:09;;;;;;;9.55;6.45;;;;;;;25.75;75.95;98196.41;5090689;28;20090;-49
2023/08/06 01:56:35;;;;;;;8.07;6.35;;;;;;;26.03;74.83;98204.69;5090620;28;20325;-47
2023/08/06 01:59:00;;;;;;;8.60;6.40;;;;;;;25.91;75.07;98210.13;5090554;28;20081;-48
2023/08/06 02:01:25;;;;;;;8.07;6.55;;;;;;;25.84;75.21;98210.69;5090536;28;20353;-45
2023/08/06 02:03:51;;;;;;;8.32;6.22;;;;;;;25.55;76.77;98220.69;5090527;28;20020;-46
2023/08/06 02:06:16;;;;;;;10.05;6.88;;;;;;;25.44;77.39;98237.81;5090593;28;20460;-49
2023/08/06 02:08:42;;;;;;;7.75;5.82;;;;;;;25.92;75.36;98241.72;5090162;28;20732;-49
2023/08/06 02:11:07;;;;;;;9.63;6.25;;;;;;;26.14;74.10;98230.34;5090215;28;20038;-45
2023/08/06 02:13:33;;;;;;;8.77;6.40;;;;;;;26.09;74.21;98213.44;5090440;28;20414;-47
2023/08/06 02:15:58;;;;;;;8.93;6.28;;;;;;;26.01;74.11;98222.50;5090326;28;20590;-49
2023/08/06 02:18:23;;;;;;;9.20;6.47;;;;;;;25.79;75.31;98223.75;5090187;28;20032;-49
2023/08/06 02:20:59;;;;;;;9.07;6.50;;;;;;;25.63;76.10;98212.75;5090491;28;20157;-49
2023/08/06 02:23:25;;;;;;;8.00;6.20;;;;;;;25.53;76.81;98227.59;5090196;28;20024;-48
2023/08/06 02:26:08;;;;;;;7.47;6.20;;;;;;;25.59;76.78;98217.28;5090043;28;20127;-46
2023/08/06 02:28:34;;;;;;;9.95;6.60;;;;;;;25.79;75.31;98218.31;5090364;28;20435;-46
2023/08/06 02:30:59;;;;;;;12.55;6.40;;;;;;;25.98;74.48;98215.03;5090148;28;20032;-49
2023/08/06 02:33:25;;;;;;;10.00;6.95;;;;;;;25.92;74.28;98214.47;5090446;28;20027;-45
2023/08/06 02:35:50;;;;;;;10.77;7.15;;;;;;;25.75;75.08;98202.63;5089950;28;20012;-46
2023/08/06 02:38:16;;;;;;;9.88;7.20;;;;;;;25.81;75.21;98213.31;5090342;28;20495;-48
2023/08/06 02:40:47;;;;;;;9.00;7.20;;;;;;;25.63;75.89;98210.03;5090216;28;20081;-48
2023/08/06 02:43:13;;;;;;;8.60;7.40;;;;;;;25.80;74.85;98211.72;5090405;28;20023;-45
2023/08/06 02:45:39;;;;;;;9.70;6.80;;;;;;;25.64;75.69;98198.78;5090014;28;20562;-46
2023/08/06 02:48:04;;;;;;;8.02;6.35;;;;;;;25.57;75.85;98198.56;5089833;28;20023;-46
2023/08/06 02:50:30;;;;;;;10.50;7.28;;;;;;;25.71;75.30;98207.19;5090255;28;20024;-46
2023/08/06 02:52:55;;;;;;;9.30;7.18;;;;;;;25.45;76.84;98201.28;5090073;28;20024;-45
2023/08/06 02:55:20;;;;;;;9.15;6.90;;;;;;;25.47;76.50;98205.25;5090124;28;20081;-46
2023/08/06 02:57:46;;;;;;;7.88;7.03;;;;;;;25.63;75.89;98204.59;5090912;28;20099;-47
2023/08/06 03:00:11;;;;;;;9.15;7.20;;;;;;;25.67;75.75;98195.38;5094006;28;20479;-47
2023/08/06 03:02:37;;;;;;;9.75;7.35;;;;;;;25.70;75.10;98183.81;5093822;28;20020;-42
2023/08/06 03:05:03;;;;;;;11.43;8.05;;;;;;;25.64;75.48;98196.06;5093414;28;20020;-45
2023/08/06 03:07:29;;;;;;;10.27;7.88;;;;;;;25.47;76.40;98197.06;5093585;28;20034;-46
2023/08/06 03:09:54;;;;;;;12.68;8.73;;;;;;;25.53;76.26;98203.09;5093606;28;20020;-43
2023/08/06 03:12:20;;;;;;;12.82;8.35;;;;;;;25.52;76.29;98205.03;5093790;28;20016;-44
2023/08/06 03:14:45;;;;;;;11.50;9.73;;;;;;;25.26;77.50;98199.09;5093714;28;20012;-48
2023/08/06 03:17:11;;;;;;;11.98;9.68;;;;;;;25.23;78.20;98197.88;5093614;28;20091;-49
2023/08/06 03:19:36;;;;;;;14.40;9.85;;;;;;;25.23;77.95;98205.25;5092868;28;20020;-47
2023/08/06 03:22:02;;;;;;;14.82;9.23;;;;;;;25.22;78.63;98198.16;5093415;28;20024;-49
2023/08/06 03:24:27;;;;;;;10.60;8.88;;;;;;;25.32;77.72;98190.41;5092587;28;20456;-46
2023/08/06 03:26:52;;;;;;;12.18;8.98;;;;;;;25.45;77.05;98193.91;5092585;28;20030;-48
2023/08/06 03:29:18;;;;;;;13.45;9.90;;;;;;;25.29;77.85;98207.41;5093133;28;20039;-45
2023/08/06 03:31:44;;;;;;;11.85;9.50;;;;;;;25.24;78.22;98209.53;5093270;28;20024;-44
2023/08/06 03:34:09;;;;;;;12.13;9.55;;;;;;;25.56;76.97;98222.28;5093480;28;20051;-47
2023/08/06 03:36:34;;;;;;;15.38;10.07;;;;;;;25.47;77.17;98227.03;5093215;28;20484;-48
2023/08/06 03:39:00;;;;;;;12.38;9.25;;;;;;;25.44;76.90;98219.56;5074839;28;20526;-45
2023/08/06 03:41:25;;;;;;;11.95;9.60;;;;;;;25.23;78.34;98210.69;5093043;28;20020;-45
2023/08/06 03:43:51;;;;;;;12.50;9.18;;;;;;;25.42;77.44;98204.66;5093307;28;20024;-45
2023/08/06 03:46:16;;;;;;;11.85;9.40;;;;;;;25.70;76.28;98211.06;5093014;28;20464;-45
2023/08/06 03:48:42;;;;;;;10.45;9.18;;;;;;;25.61;76.26;98213.09;5093102;28;20027;-47
2023/08/06 03:51:07;;;;;;;11.75;10.05;;;;;;;25.88;75.64;98219.00;5093027;28;20024;-45
2023/08/06 03:53:33;;;;;;;12.70;9.93;;;;;;;25.77;75.78;98209.69;5092833;28;20027;-45
2023/08/06 03:55:59;;;;;;;14.98;10.15;;;;;;;25.70;76.10;98210.25;5092826;28;20047;-46
2023/08/06 03:58:26;;;;;;;14.05;10.68;;;;;;;25.62;76.27;98205.72;5092585;28;20036;-47
2023/08/06 04:01:01;;;;;;;13.88;11.40;;;;;;;25.27;78.21;98217.03;5092521;28;20070;-44
2023/08/06 04:03:27;;;;;;;14.30;10.98;;;;;;;25.28;78.20;98224.06;5092543;28;20016;-46
2023/08/06 04:05:53;;;;;;;15.15;11.75;;;;;;;25.43;77.31;98220.66;5092604;28;20019;-46
2023/08/06 04:08:19;;;;;;;13.27;11.27;;;;;;;25.34;77.05;98223.50;5092358;28;20479;-46
2023/08/06 04:10:44;;;;;;;14.48;12.10;;;;;;;25.31;77.39;98216.00;5092666;28;20081;-46
2023/08/06 04:13:10;;;;;;;13.90;11.75;;;;;;;25.56;76.65;98218.75;5092597;28;20023;-43
2023/08/06 04:15:35;;;;;;;15.85;12.65;;;;;;;25.73;75.59;98226.69;5092419;28;20025;-44
2023/08/06 04:18:01;;;;;;;14.88;12.68;;;;;;;25.45;76.70;98226.56;5092427;28;20073;-46
2023/08/06 04:20:26;;;;;;;14.02;12.52;;;;;;;25.46;77.07;98236.34;5092192;28;20020;-46
2023/08/06 04:22:54;;;;;;;17.58;13.23;;;;;;;25.39;77.32;98225.22;5091396;28;20162;-47
2023/08/06 04:25:20;;;;;;;17.35;13.57;;;;;;;25.34;77.61;98223.50;5092267;28;20028;-45
2023/08/06 04:27:47;;;;;;;15.55;13.02;;;;;;;25.31;78.31;98239.72;5091823;28;20103;-47
2023/08/06 04:30:12;;;;;;;17.85;12.88;;;;;;;25.46;77.13;98241.78;5091762;28;20409;-46
2023/08/06 04:32:39;;;;;;;17.65;12.80;;;;;;;25.53;77.18;98235.75;5091572;28;20024;-45
2023/08/06 04:35:05;;;;;;;17.23;12.60;;;;;;;25.93;75.46;98243.28;5091603;28;20023;-46
2023/08/06 04:37:30;;;;;;;14.13;12.68;;;;;;;26.21;74.00;98242.59;5091281;28;20052;-47
2023/08/06 04:39:56;;;;;;;14.52;11.93;;;;;;;26.49;72.22;98237.19;5091275;28;20026;-45
2023/08/06 04:42:21;;;;;;;20.33;12.55;;;;;;;26.59;71.92;98230.44;5091468;28;20024;-46
2023/08/06 04:44:46;;;;;;;14.15;11.43;;;;;;;26.60;71.69;98219.22;5091253;28;20027;-46
2023/08/06 04:47:12;;;;;;;18.85;13.20;;;;;;;26.36;72.78;98222.78;5091460;28;20085;-45
2023/08/06 04:49:37;;;;;;;17.02;13.52;;;;;;;26.26;73.08;98226.78;5091191;28;20047;-45
2023/08/06 04:52:03;;;;;;;16.08;13.05;;;;;;;26.30;72.97;98235.88;5090966;28;20027;-46
2023/08/06 04:54:29;;;;;;;15.48;13.05;;;;;;;26.55;71.84;98235.00;5091354;28;20089;-44
2023/08/06 04:56:54;;;;;;;14.35;12.60;;;;;;;26.74;71.16;98232.47;5091283;28;20039;-45
2023/08/06 04:59:19;;;;;;;15.57;12.13;;;;;;;27.04;69.76;98230.16;5072797;28;20456;-46
2023/08/06 05:01:45;;;;;;;15.95;13.40;;;;;;;27.10;69.27;98226.03;5091111;28;20020;-45
2023/08/06 05:04:10;;;;;;;18.83;13.23;;;;;;;26.88;69.68;98241.06;5090893;28;20024;-45
2023/08/06 05:06:38;;;;;;;17.15;13.68;;;;;;;26.74;70.21;98248.06;5090592;28;20012;-46
2023/08/06 05:09:04;;;;;;;18.10;13.95;;;;;;;26.97;69.29;98232.69;5090851;28;20098;-44
2023/08/06 05:11:30;;;;;;;17.45;13.38;;;;;;;26.54;71.06;98234.22;5090614;28;20063;-46
2023/08/06 05:13:55;;;;;;;30.42;21.85;;;;;;;26.88;69.69;98238.34;5090791;28;20043;-45
2023/08/06 05:16:21;;;;;;;22.80;18.77;;;;;;;27.16;68.59;98223.84;5090709;28;20094;-45
2023/08/06 05:18:46;;;;;;;17.92;13.98;;;;;;;27.40;67.80;98219.41;5090267;28;20030;-46
2023/08/06 05:21:12;;;;;;;15.80;13.95;;;;;;;27.34;67.85;98221.59;5090551;28;20021;-44
2023/08/06 05:23:37;;;;;;;16.88;13.73;;;;;;;27.31;67.75;98230.50;5088227;28;20454;-44
2023/08/06 05:26:02;;;;;;;15.45;13.82;;;;;;;27.10;68.61;98247.09;5071645;28;20024;-44
2023/08/06 05:28:28;;;;;;;16.92;13.57;;;;;;;26.94;69.29;98249.78;5090710;28;20043;-44
2023/08/06 05:30:53;;;;;;;16.25;13.25;;;;;;;27.00;69.25;98251.13;5090584;28;20036;-44
2023/08/06 05:33:19;;;;;;;15.60;13.63;;;;;;;27.04;69.15;98232.91;5090763;28;20042;-43
2023/08/06 05:35:44;;;;;;;14.93;12.80;;;;;;;27.17;68.40;98221.91;5090945;28;20451;-43
2023/08/06 05:38:09;;;;;;;12.52;10.10;;;;;;;26.98;66.73;98212.47;5090819;28;20038;-44
2023/08/06 05:40:35;;;;;;;12.20;8.90;;;;;;;26.94;66.68;98218.97;5090933;28;20032;-43
2023/08/06 05:43:00;;;;;;;13.95;9.98;;;;;;;26.94;67.62;98217.03;5090956;28;20030;-43
2023/08/06 05:45:26;;;;;;;10.93;9.30;;;;;;;26.99;67.27;98216.75;5090655;28;20111;-45
2023/08/06 05:47:54;;;;;;;12.32;8.57;;;;;;;26.83;67.12;98224.16;5090942;28;20100;-45
2023/08/06 05:50:19;;;;;;;9.52;6.18;;;;;;;26.75;65.41;98212.25;5090463;28;20027;-44
2023/08/06 05:52:45;;;;;;;7.55;5.93;;;;;;;26.80;65.44;98211.19;5091045;28;20161;-42
2023/08/06 05:55:10;;;;;;;10.50;5.80;;;;;;;26.67;64.46;98207.72;5090835;28;20023;-43
2023/08/06 05:57:36;;;;;;;7.15;5.15;;;;;;;26.64;64.64;98211.16;5090876;28;20030;-42
2023/08/06 06:00:02;;;;;;;7.78;4.90;;;;;;;26.44;65.02;98210.16;5090963;28;20026;-44
2023/08/06 06:02:28;;;;;;;7.47;4.93;;;;;;;26.35;65.92;98226.66;5104679;28;20666;-44
2023/08/06 06:04:53;;;;;;;8.00;4.90;;;;;;;26.25;67.29;98232.59;5110907;28;20016;-41
2023/08/06 06:07:19;;;;;;;8.93;5.47;;;;;;;26.22;68.13;98228.63;5111306;28;20027;-44
2023/08/06 06:09:44;;;;;;;8.50;4.95;;;;;;;26.18;68.07;98216.00;5092563;28;20027;-43
2023/08/06 06:12:10;;;;;;;11.98;5.18;;;;;;;26.11;69.66;98206.50;5090690;28;20103;-44
2023/08/06 06:14:35;;;;;;;7.47;5.22;;;;;;;26.04;68.86;98214.44;5090257;28;20024;-44
2023/08/06 06:17:01;;;;;;;7.32;5.30;;;;;;;26.02;70.95;98186.75;5090497;28;20020;-42
2023/08/06 06:19:26;;;;;;;8.23;5.78;;;;;;;25.82;71.79;98187.69;5090462;28;20027;-45
2023/08/06 06:21:53;;;;;;;11.70;6.05;;;;;;;25.96;71.71;98204.47;5090391;28;20028;-44
2023/08/06 06:24:18;;;;;;;8.95;5.60;;;;;;;25.94;70.87;98225.81;5078393;28;20039;-42
2023/08/06 06:26:44;;;;;;;9.25;5.68;;;;;;;25.95;70.60;98219.25;5070290;28;20021;-46
2023/08/06 06:29:09;;;;;;;6.63;5.00;;;;;;;25.46;70.69;98213.78;5070571;28;20101;-44
2023/08/06 06:31:35;;;;;;;7.18;5.50;;;;;;;25.43;71.73;98203.56;5070010;28;20055;-43
2023/08/06 06:34:00;;;;;;;11.43;6.30;;;;;;;25.55;74.26;98209.81;5073127;28;20103;-42
2023/08/06 06:36:26;;;;;;;10.75;5.50;;;;;;;25.56;73.84;98226.94;5092603;28;20133;-41
2023/08/06 06:38:51;;;;;;;8.25;5.20;;;;;;;25.39;71.95;98241.53;5094658;28;20051;-40
2023/08/06 06:41:17;;;;;;;9.25;5.63;;;;;;;25.42;74.56;98237.34;5094386;28;20028;-44
2023/08/06 06:43:43;;;;;;;8.98;5.60;;;;;;;25.34;73.47;98215.34;5094249;28;20397;-43
2023/08/06 06:46:08;;;;;;;9.68;6.30;;;;;;;25.54;76.42;98210.94;5094199;28;20028;-46
2023/08/06 06:48:33;;;;;;;9.07;6.20;;;;;;;25.61;77.20;98220.44;5094287;28;20027;-44
2023/08/06 06:50:59;;;;;;;13.32;6.07;;;;;;;25.59;77.39;98214.56;5094564;28;20472;-45
2023/08/06 06:53:27;;;;;;;8.25;6.25;;;;;;;25.75;76.07;98204.56;5094785;28;20020;-43
2023/08/06 06:56:04;;;;;;;8.45;5.90;;;;;;;25.90;75.67;98217.50;5094400;28;20016;-46
2023/08/06 06:58:30;;;;;;;8.00;5.95;;;;;;;25.93;75.13;98221.50;5094141;28;20065;-44
2023/08/06 07:00:56;;;;;;;7.90;5.60;;;;;;;25.97;73.50;98227.06;5093931;28;20035;-41
2023/08/06 07:03:21;;;;;;;8.73;5.95;;;;;;;26.00;72.31;98221.72;5094248;28;20020;-41
2023/08/06 07:05:47;;;;;;;9.52;6.30;;;;;;;26.10;71.62;98226.72;5094052;28;20077;-42
2023/08/06 07:08:12;;;;;;;9.25;5.78;;;;;;;26.20;72.32;98228.19;5094068;28;20352;-43
2023/08/06 07:10:38;;;;;;;8.05;5.70;;;;;;;26.31;70.83;98234.75;5094394;28;20024;-44
2023/08/06 07:13:04;;;;;;;6.72;5.70;;;;;;;26.57;70.68;98238.97;5094171;28;20107;-44
2023/08/06 07:15:29;;;;;;;7.60;5.57;;;;;;;26.41;70.28;98244.38;5093751;28;20087;-43
2023/08/06 07:17:55;;;;;;;7.22;5.82;;;;;;;26.55;69.40;98245.94;5093959;28;20027;-44
2023/08/06 07:20:20;;;;;;;8.32;5.60;;;;;;;26.66;69.72;98253.31;5093727;28;20386;-43
2023/08/06 07:22:46;;;;;;;8.32;5.82;;;;;;;26.82;68.45;98258.00;5093965;28;20111;-44
2023/08/06 07:25:11;;;;;;;8.05;5.82;;;;;;;26.84;67.55;98266.66;5093761;28;20020;-45
2023/08/06 07:27:37;;;;;;;6.43;5.68;;;;;;;26.96;67.91;98263.88;5093899;28;20489;-44
2023/08/06 07:30:03;;;;;;;9.00;6.28;;;;;;;27.15;68.46;98271.41;5094063;28;20142;-45
2023/08/06 07:32:28;;;;;;;7.03;5.80;;;;;;;27.03;66.34;98279.63;5093829;28;20445;-43
2023/08/06 07:34:59;;;;;;;10.27;6.03;;;;;;;26.95;67.16;98272.41;5093675;28;20027;-43
2023/08/06 07:37:24;;;;;;;9.65;6.25;;;;;;;27.03;66.64;98266.00;5092400;28;20500;-45
2023/08/06 07:39:50;;;;;;;7.43;6.55;;;;;;;27.08;67.39;98257.56;5092695;28;20055;-46
2023/08/06 07:42:15;;;;;;;10.63;6.90;;;;;;;26.88;65.97;98246.50;5092257;28;20047;-44
2023/08/06 07:44:41;;;;;;;9.50;6.70;;;;;;;26.92;66.29;98246.59;5091733;28;20016;-45
2023/08/06 07:47:06;;;;;;;9.52;6.53;;;;;;;27.09;66.57;98253.66;5092606;28;20047;-48
2023/08/06 07:49:31;;;;;;;8.27;6.65;;;;;;;27.50;65.53;98257.09;5092330;28;20466;-46
2023/08/06 07:51:57;;;;;;;9.20;6.90;;;;;;;27.45;65.44;98254.63;5088332;28;20020;-45
2023/08/06 07:54:24;;;;;;;9.55;7.05;;;;;;;27.28;64.69;98251.13;5085726;28;20032;-45
2023/08/06 07:56:49;;;;;;;12.48;7.65;;;;;;;27.22;65.41;98219.69;5087019;28;20032;-47
2023/08/06 07:59:15;;;;;;;9.80;7.13;;;;;;;27.60;64.34;98253.84;5091885;28;20387;-43
2023/08/06 08:01:40;;;;;;;9.05;7.20;;;;;;;27.80;63.91;98273.06;5086448;28;20039;-45
2023/08/06 08:04:06;;;;;;;11.50;7.50;;;;;;;27.57;64.82;98281.06;5089304;28;20020;-45
2023/08/06 08:06:31;;;;;;;10.85;7.30;;;;;;;27.71;63.89;98283.38;5088923;28;20156;-43
2023/08/06 08:08:56;;;;;;;8.90;7.40;;;;;;;27.59;64.10;98289.72;5091606;28;20403;-44
2023/08/06 08:11:22;;;;;;;8.75;7.30;;;;;;;27.71;63.41;98269.72;5091601;28;20363;-45
2023/08/06 08:13:47;;;;;;;9.93;7.82;;;;;;;28.14;62.23;98273.47;5091885;28;20024;-43
2023/08/06 08:16:13;;;;;;;11.00;8.13;;;;;;;28.41;60.72;98279.94;5092416;28;20016;-44
2023/08/06 08:18:38;;;;;;;10.15;7.32;;;;;;;28.36;60.13;98282.97;5088883;28;20032;-44
2023/08/06 08:21:03;;;;;;;9.00;7.13;;;;;;;27.95;61.87;98291.44;5081142;28;20020;-43
2023/08/06 08:23:31;;;;;;;9.23;7.40;;;;;;;26.80;66.30;98284.84;5085532;28;20020;-44
2023/08/06 08:25:56;;;;;;;8.43;7.47;;;;;;;27.06;65.49;98281.69;5090632;28;20365;-42
2023/08/06 08:28:22;;;;;;;11.95;7.68;;;;;;;26.91;65.42;98292.19;5081924;28;20482;-43
2023/08/06 08:30:47;;;;;;;10.07;8.27;;;;;;;27.08;64.57;98265.75;5073096;28;20017;-42
2023/08/06 08:33:13;;;;;;;10.63;8.20;;;;;;;27.30;63.95;98273.41;5091186;28;20020;-43
2023/08/06 08:35:38;;;;;;;9.55;7.82;;;;;;;27.32;63.76;98270.28;5048325;28;1234544;-43
2023/08/06 08:38:04;;;;;;;9.73;8.30;;;;;;;27.31;64.80;98266.00;5092366;28;20095;-42
2023/08/06 08:40:32;;;;;;;11.38;9.07;;;;;;;27.00;66.51;98258.53;5090710;28;20036;-43
2023/08/06 08:42:59;;;;;;;13.70;9.32;;;;;;;27.13;65.46;98254.59;5089631;28;20031;-43
2023/08/06 08:45:28;;;;;;;12.65;9.10;;;;;;;27.18;64.65;98262.50;5092336;28;20400;-44
2023/08/06 08:47:54;;;;;;;10.93;8.48;;;;;;;27.24;65.11;98265.78;5092499;28;20486;-42
2023/08/06 08:50:20;;;;;;;10.82;8.77;;;;;;;27.21;65.27;98272.72;5091037;28;20034;-41
2023/08/06 08:52:46;;;;;;;9.27;8.27;;;;;;;27.29;64.39;98268.28;5083458;28;20016;-46
2023/08/06 08:55:13;;;;;;;10.85;8.48;;;;;;;27.44;64.50;98274.91;5086012;28;20392;-43
2023/08/06 08:57:39;;;;;;;10.13;8.00;;;;;;;27.10;66.06;98269.72;5091080;28;20513;-43
2023/08/06 09:00:05;;;;;;;8.15;7.10;;;;;;;27.26;64.38;98267.06;5091207;28;20099;-43
2023/08/06 09:02:32;;;;;;;10.23;7.38;;;;;;;27.34;63.98;98265.31;5091130;28;20052;-43
2023/08/06 09:05:02;;;;;;;9.43;8.15;;;;;;;27.11;65.33;98256.84;5091426;28;20072;-43
2023/08/06 09:07:31;;;;;;;9.25;7.43;;;;;;;27.28;64.37;98253.84;5091383;28;20020;-43
2023/08/06 09:09:58;;;;;;;10.88;7.60;;;;;;;27.38;64.84;98236.13;5091573;28;20097;-44
2023/08/06 09:12:23;;;;;;;11.25;8.38;;;;;;;27.70;65.48;98233.38;5091476;28;20035;-43
2023/08/06 09:14:49;;;;;;;10.63;8.02;;;;;;;28.19;62.25;98227.50;5091089;28;20024;-44
2023/08/06 09:17:14;;;;;;;9.90;7.80;;;;;;;28.78;61.25;98231.09;5091142;28;20486;-46
2023/08/06 09:19:47;;;;;;;10.20;7.60;;;;;;;29.31;58.68;98227.78;5090981;28;20035;-47
2023/08/06 09:22:13;;;;;;;13.95;7.60;;;;;;;29.71;56.43;98228.44;5091643;28;20023;-45
2023/08/06 09:24:41;;;;;;;8.02;6.40;;;;;;;29.36;56.68;98232.97;5090873;28;20051;-44
2023/08/06 09:27:14;;;;;;;6.68;5.90;;;;;;;29.48;54.22;98221.03;5090925;28;20032;-44
2023/08/06 09:29:45;;;;;;;6.00;5.40;;;;;;;29.44;53.29;98225.66;5090968;28;20038;-46
2023/08/06 09:32:11;;;;;;;6.97;5.35;;;;;;;30.33;52.16;98230.94;5090921;28;20024;-45
2023/08/06 09:34:39;;;;;;;6.13;5.30;;;;;;;30.72;50.93;98228.69;5090948;28;20105;-44
2023/08/06 09:37:05;;;;;;;5.82;4.70;;;;;;;30.93;48.80;98225.41;5090366;28;20139;-45
2023/08/06 09:39:31;;;;;;;5.85;4.20;;;;;;;31.24;48.20;98214.31;5090809;28;20448;-44
2023/08/06 09:41:58;;;;;;;5.40;3.50;;;;;;;31.62;46.53;98226.06;5090715;28;20050;-46
2023/08/06 09:44:25;;;;;;;4.10;3.65;;;;;;;31.85;46.08;98223.84;5084772;28;20028;-47
2023/08/06 09:46:55;;;;;;;3.90;3.50;;;;;;;31.78;46.33;98207.34;5089581;28;20016;-45
2023/08/06 09:49:25;;;;;;;3.78;3.38;;;;;;;31.75;46.02;98208.09;5089518;28;20028;-44
2023/08/06 09:51:58;;;;;;;6.50;3.60;;;;;;;31.32;44.33;98210.47;5085842;28;20032;-46
2023/08/06 09:54:24;;;;;;;4.20;3.28;;;;;;;31.24;44.53;98209.59;5086982;28;20476;-45
2023/08/06 09:56:50;;;;;;;4.18;3.63;;;;;;;31.56;43.12;98182.44;5089501;28;20462;-44
2023/08/06 09:59:16;;;;;;;5.20;3.65;;;;;;;32.22;42.56;98192.69;5082765;28;20028;-44
2023/08/06 10:01:41;;;;;;;4.68;3.80;;;;;;;32.41;40.77;98199.84;5087970;28;20028;-44
2023/08/06 10:04:11;;;;;;;4.80;4.20;;;;;;;32.31;41.26;98195.06;5090700;28;20024;-44
2023/08/06 10:06:37;;;;;;;5.30;4.50;;;;;;;32.63;40.97;98197.19;5090202;28;20515;-45
2023/08/06 10:09:04;;;;;;;5.25;4.20;;;;;;;33.19;39.60;98192.22;5089887;28;20185;-42
2023/08/06 10:11:30;;;;;;;5.30;4.47;;;;;;;33.19;38.70;98201.28;5090758;28;20040;-42
2023/08/06 10:14:19;;;;;;;6.95;4.70;;;;;;;33.63;37.05;98182.75;5090494;28;20051;-42
2023/08/06 10:16:47;;;;;;;6.47;5.20;;;;;;;33.46;37.76;98173.31;5089859;28;20024;-41
2023/08/06 10:19:15;;;;;;;5.65;5.15;;;;;;;33.35;37.60;98169.78;5090389;28;20276;-44
2023/08/06 10:21:40;;;;;;;5.25;4.75;;;;;;;33.41;36.57;98165.44;5089309;28;20068;-42
2023/08/06 10:24:12;;;;;;;5.50;5.00;;;;;;;33.41;38.29;98159.94;5089688;28;20032;-44
2023/08/06 10:26:37;;;;;;;4.75;4.35;;;;;;;33.08;36.16;98162.66;5089822;28;20020;-44
2023/08/06 10:29:36;;;;;;;5.22;4.68;;;;;;;33.34;35.00;98162.69;5090259;28;20352;-44
2023/08/06 10:32:02;;;;;;;5.93;5.05;;;;;;;33.31;35.36;98172.53;5081575;28;20093;-45
2023/08/06 10:34:57;;;;;;;5.93;4.80;;;;;;;33.41;35.29;98163.47;5089964;28;20028;-42
2023/08/06 10:37:24;;;;;;;4.57;4.18;;;;;;;33.45;35.63;98157.94;5079274;28;20081;-42
2023/08/06 10:39:52;;;;;;;4.70;4.20;;;;;;;33.63;35.54;98169.78;5090432;28;20471;-43
2023/08/06 10:42:28;;;;;;;8.23;3.90;;;;;;;34.16;34.13;98165.34;5090646;28;20055;-44
2023/08/06 10:45:16;;;;;;;4.43;4.03;;;;;;;34.17;34.77;98166.13;5090120;28;20450;-43
2023/08/06 10:47:43;;;;;;;6.15;4.28;;;;;;;34.27;33.45;98157.81;5090354;28;20028;-43
2023/08/06 10:50:13;;;;;;;5.70;4.47;;;;;;;34.40;32.76;98157.34;5090341;28;20020;-45
2023/08/06 10:52:39;;;;;;;5.13;4.28;;;;;;;34.50;33.23;98172.28;5090432;28;20032;-44
2023/08/06 10:55:05;;;;;;;5.25;3.78;;;;;;;34.63;33.42;98178.91;5090642;28;20028;-44
2023/08/06 10:57:30;;;;;;;5.00;4.47;;;;;;;34.76;32.85;98176.53;5090420;28;20020;-42
2023/08/06 10:59:55;;;;;;;6.90;4.22;;;;;;;34.55;32.88;98180.16;5090438;28;20218;-45
2023/08/06 11:02:21;;;;;;;4.63;4.22;;;;;;;34.27;32.55;98171.63;5090493;28;20032;-43
2023/08/06 11:04:48;;;;;;;5.28;4.10;;;;;;;34.63;32.66;98179.72;5090283;28;20032;-44
2023/08/06 11:07:13;;;;;;;5.30;4.00;;;;;;;34.51;32.41;98166.38;5089967;28;20034;-44
2023/08/06 11:09:39;;;;;;;5.63;4.40;;;;;;;34.26;32.73;98172.78;5090218;28;20036;-44
2023/08/06 11:12:11;;;;;;;4.78;4.10;;;;;;;34.29;32.53;98173.97;5089889;28;20039;-44
2023/08/06 11:14:36;;;;;;;5.53;3.95;;;;;;;34.52;31.66;98164.38;5089984;28;20468;-42
2023/08/06 11:17:02;;;;;;;4.32;3.92;;;;;;;34.82;31.56;98169.38;5089912;28;20020;-43
2023/08/06 11:19:27;;;;;;;4.28;3.88;;;;;;;34.55;30.92;98177.41;5091617;28;20118;-44
2023/08/06 11:21:54;;;;;;;4.05;3.50;;;;;;;34.98;31.07;98180.72;5093515;28;20032;-42
2023/08/06 11:24:20;;;;;;;4.30;3.90;;;;;;;35.27;29.80;98180.53;5093974;28;20035;-44
2023/08/06 11:26:45;;;;;;;4.22;3.40;;;;;;;35.14;30.26;98184.94;5093688;28;20028;-44